RJFA(METAR)
08/13 14:00
METAR RJFA 130500Z 29009KT 220V340 9999 FEW025 32/25 Q1012 RMK
1CU025 A2989=
戻る
トップページへ戻る
IMOC Co,.Ltd.